Time;durP1;ratioP1;P1;durP2;ratioP2;P2;SDS_P1;SDS_P2;PMS_P1;PMS_P2;Temp;Humidity;BMP_temperature;BMP_pressure;BME280_temperature;BME280_humidity;BME280_pressure;Samples;Min_cycle;Max_cycle;Signal;HPM_P1;HPM_P2
2022/08/07 00:01:02;;;;;;;;;;;23.40;41.90;;;;;;5017482;28;19929;-68
2022/08/07 00:03:28;;;;;;;;;;;23.40;42.20;;;;;;5019866;28;19930;-67
2022/08/07 00:05:55;;;;;;;;;;;23.30;42.20;;;;;;5021876;28;19932;-68
2022/08/07 00:08:22;;;;;;;;;;;23.30;42.30;;;;;;5026098;28;19932;-69
2022/08/07 00:10:50;;;;;;;;;;;23.30;42.10;;;;;;5032157;28;19972;-71
2022/08/07 00:13:17;;;;;;;;;;;23.20;42.30;;;;;;5022377;28;19973;-70
2022/08/07 00:15:43;;;;;;;;;;;23.20;42.30;;;;;;5020199;28;20497;-70
2022/08/07 00:18:10;;;;;;;;;;;23.10;42.60;;;;;;5018891;28;19952;-71
2022/08/07 00:20:37;;;;;;;;;;;23.10;42.50;;;;;;5021711;28;20336;-70
2022/08/07 00:23:05;;;;;;;;;;;23.00;42.40;;;;;;5029485;28;20721;-72
2022/08/07 00:25:32;;;;;;;;;;;23.00;42.60;;;;;;5025247;28;20996;-70
2022/08/07 00:28:00;;;;;;;;;;;22.90;42.40;;;;;;5027063;28;19925;-70
2022/08/07 00:30:27;;;;;;;;;;;22.90;42.70;;;;;;5020536;28;19925;-72
2022/08/07 00:32:53;;;;;;;;;;;22.80;42.70;;;;;;5019411;28;20363;-70
2022/08/07 00:35:20;;;;;;;;;;;22.80;42.90;;;;;;5030297;28;19933;-69
2022/08/07 00:37:47;;;;;;;;;;;22.80;42.70;;;;;;5027689;28;20059;-69
2022/08/07 00:40:14;;;;;;;;;;;22.70;42.80;;;;;;5024926;28;20028;-72
2022/08/07 00:42:41;;;;;;;;;;;22.70;43.10;;;;;;5022913;28;19933;-69
2022/08/07 00:45:09;;;;;;;;;;;22.60;43.10;;;;;;5021545;28;20012;-70
2022/08/07 00:47:36;;;;;;;;;;;22.60;43.10;;;;;;5018547;28;19983;-70
2022/08/07 00:50:03;;;;;;;;;;;22.60;43.20;;;;;;5025448;28;19925;-70
2022/08/07 00:52:30;;;;;;;;;;;22.50;43.30;;;;;;5025084;28;19948;-71
2022/08/07 00:54:56;;;;;;;;;;;22.50;43.40;;;;;;5014934;28;20316;-71
2022/08/07 00:57:23;;;;;;;;;;;22.50;43.50;;;;;;5026064;28;19929;-69
2022/08/07 00:59:50;;;;;;;;;;;22.40;43.10;;;;;;5019887;28;19932;-70
2022/08/07 01:02:18;;;;;;;;;;;22.40;43.30;;;;;;5021438;28;19929;-70
2022/08/07 01:04:45;;;;;;;;;;;22.30;43.50;;;;;;5042537;28;19928;-73
2022/08/07 01:07:13;;;;;;;;;;;22.30;43.50;;;;;;5023368;28;19936;-70
2022/08/07 01:09:39;;;;;;;;;;;22.20;43.60;;;;;;5026453;28;20375;-70
2022/08/07 01:12:06;;;;;;;;;;;22.20;43.80;;;;;;5037366;28;20337;-70
2022/08/07 01:14:33;;;;;;;;;;;22.20;43.70;;;;;;5035365;28;19937;-70
2022/08/07 01:16:59;;;;;;;;;;;22.10;43.90;;;;;;5014371;28;19929;-70
2022/08/07 01:19:29;;;;;;;;;;;22.10;44.00;;;;;;5022974;28;20012;-70
2022/08/07 01:21:57;;;;;;;;;;;22.10;44.10;;;;;;5027433;28;20015;-71
2022/08/07 01:24:23;;;;;;;;;;;22.10;44.00;;;;;;5034887;28;19929;-70
2022/08/07 01:26:50;;;;;;;;;;;22.00;43.90;;;;;;5042948;28;19931;-69
2022/08/07 01:29:17;;;;;;;;;;;21.90;43.80;;;;;;5023768;28;19933;-70
2022/08/07 01:31:44;;;;;;;;;;;21.90;43.90;;;;;;5024641;28;19924;-69
2022/08/07 01:34:12;;;;;;;;;;;21.90;44.00;;;;;;5044494;28;19934;-70
2022/08/07 01:36:39;;;;;;;;;;;21.80;44.00;;;;;;5017848;28;19952;-70
2022/08/07 01:39:07;;;;;;;;;;;21.80;44.10;;;;;;5019121;28;19929;-70
2022/08/07 01:41:33;;;;;;;;;;;21.80;44.20;;;;;;5038676;28;19933;-70
2022/08/07 01:44:00;;;;;;;;;;;21.80;44.30;;;;;;5027472;28;20417;-70
2022/08/07 01:46:27;;;;;;;;;;;21.70;44.30;;;;;;5022583;28;19925;-71
2022/08/07 01:48:53;;;;;;;;;;;21.60;44.30;;;;;;5033470;28;19929;-70
2022/08/07 01:51:20;;;;;;;;;;;21.60;44.20;;;;;;5032817;28;19925;-70
2022/08/07 01:53:49;;;;;;;;;;;21.60;44.40;;;;;;5022416;28;20203;-71
2022/08/07 01:56:22;;;;;;;;;;;21.60;44.40;;;;;;5035194;28;19926;-71
2022/08/07 01:58:50;;;;;;;;;;;21.50;44.50;;;;;;5018236;28;20423;-71
2022/08/07 02:01:20;;;;;;;;;;;21.50;44.60;;;;;;5016973;28;20430;-71
2022/08/07 02:03:49;;;;;;;;;;;21.50;44.70;;;;;;5039531;28;19940;-70
2022/08/07 02:06:16;;;;;;;;;;;21.50;44.50;;;;;;5017043;28;20016;-70
2022/08/07 02:08:44;;;;;;;;;;;21.40;44.60;;;;;;5023827;28;19960;-71
2022/08/07 02:11:11;;;;;;;;;;;21.40;44.70;;;;;;5031104;28;19925;-72
2022/08/07 02:13:39;;;;;;;;;;;21.30;44.50;;;;;;5032887;28;19940;-70
2022/08/07 02:16:07;;;;;;;;;;;21.30;44.80;;;;;;5016580;28;19977;-70
2022/08/07 02:18:36;;;;;;;;;;;21.20;45.00;;;;;;5017422;28;19932;-70
2022/08/07 02:21:03;;;;;;;;;;;21.20;45.00;;;;;;5032911;28;20023;-70
2022/08/07 02:23:31;;;;;;;;;;;21.20;44.90;;;;;;5025111;28;19929;-70
2022/08/07 02:25:58;;;;;;;;;;;21.20;45.10;;;;;;5037018;28;19990;-71
2022/08/07 02:28:27;;;;;;;;;;;21.10;45.00;;;;;;5020909;28;19921;-70
2022/08/07 02:30:55;;;;;;;;;;;21.10;45.00;;;;;;5019567;28;19925;-70
2022/08/07 02:33:23;;;;;;;;;;;21.10;45.00;;;;;;5021212;28;19933;-69
2022/08/07 02:35:49;;;;;;;;;;;21.10;45.10;;;;;;5027181;28;19925;-70
2022/08/07 02:38:16;;;;;;;;;;;21.00;45.10;;;;;;5016781;28;19936;-70
2022/08/07 02:40:43;;;;;;;;;;;21.00;44.90;;;;;;5044730;28;20304;-71
2022/08/07 02:43:10;;;;;;;;;;;21.00;45.10;;;;;;5016577;28;19936;-70
2022/08/07 02:45:38;;;;;;;;;;;20.90;45.20;;;;;;5018144;28;19925;-71
2022/08/07 02:48:06;;;;;;;;;;;20.90;45.20;;;;;;5027627;28;19936;-71
2022/08/07 02:50:34;;;;;;;;;;;20.90;45.40;;;;;;5034735;28;19940;-70
2022/08/07 02:53:03;;;;;;;;;;;20.80;45.20;;;;;;5015323;28;19931;-69
2022/08/07 02:55:30;;;;;;;;;;;20.80;45.20;;;;;;5032635;28;19979;-70
2022/08/07 02:58:01;;;;;;;;;;;20.80;45.40;;;;;;5027428;28;19925;-70
2022/08/07 03:00:29;;;;;;;;;;;20.70;45.40;;;;;;5019716;28;20390;-70
2022/08/07 03:02:56;;;;;;;;;;;20.70;45.20;;;;;;5015750;28;19932;-70
2022/08/07 03:05:24;;;;;;;;;;;20.70;45.40;;;;;;5020399;28;19933;-70
2022/08/07 03:07:51;;;;;;;;;;;20.60;45.40;;;;;;5015183;28;19929;-71
2022/08/07 03:10:18;;;;;;;;;;;20.60;45.50;;;;;;5026181;28;20351;-69
2022/08/07 03:12:45;;;;;;;;;;;20.60;45.70;;;;;;5023201;28;19933;-73
2022/08/07 03:15:12;;;;;;;;;;;20.60;45.70;;;;;;5016666;28;19925;-70
2022/08/07 03:17:39;;;;;;;;;;;20.60;45.90;;;;;;5013328;28;19925;-69
2022/08/07 03:20:06;;;;;;;;;;;20.50;45.70;;;;;;5015990;28;19941;-70
2022/08/07 03:22:35;;;;;;;;;;;20.50;45.80;;;;;;5015690;28;19929;-70
2022/08/07 03:25:02;;;;;;;;;;;20.50;45.80;;;;;;5028675;28;20043;-70
2022/08/07 03:27:29;;;;;;;;;;;20.50;46.20;;;;;;5033107;28;19932;-70
2022/08/07 03:29:56;;;;;;;;;;;20.40;45.90;;;;;;5012338;28;19925;-70
2022/08/07 03:32:24;;;;;;;;;;;20.40;45.80;;;;;;5023872;28;20424;-70
2022/08/07 03:34:53;;;;;;;;;;;20.30;46.10;;;;;;5015855;28;19925;-70
2022/08/07 03:37:21;;;;;;;;;;;20.30;46.10;;;;;;5019655;28;19926;-69
2022/08/07 03:39:49;;;;;;;;;;;20.30;46.20;;;;;;5035358;28;19956;-70
2022/08/07 03:42:17;;;;;;;;;;;20.30;46.00;;;;;;5029782;28;19926;-69
2022/08/07 03:44:43;;;;;;;;;;;20.20;46.10;;;;;;5019668;28;19932;-70
2022/08/07 03:47:10;;;;;;;;;;;20.20;46.20;;;;;;5032578;28;19928;-70
2022/08/07 03:49:37;;;;;;;;;;;20.20;46.30;;;;;;5026958;28;19926;-70
2022/08/07 03:52:05;;;;;;;;;;;20.20;46.40;;;;;;5018754;28;19932;-70
2022/08/07 03:54:31;;;;;;;;;;;20.20;46.60;;;;;;5021956;28;20337;-70
2022/08/07 03:57:00;;;;;;;;;;;20.10;46.50;;;;;;5032363;28;19929;-69
2022/08/07 03:59:26;;;;;;;;;;;20.10;46.30;;;;;;5028400;28;19929;-70
2022/08/07 04:01:54;;;;;;;;;;;20.10;46.60;;;;;;5043235;28;19924;-70
2022/08/07 04:04:21;;;;;;;;;;;20.10;46.70;;;;;;5019803;28;19929;-70
2022/08/07 04:06:48;;;;;;;;;;;20.00;46.60;;;;;;5020952;28;19929;-69
2022/08/07 04:09:15;;;;;;;;;;;20.00;46.90;;;;;;5027866;28;19932;-70
2022/08/07 04:11:42;;;;;;;;;;;20.00;46.90;;;;;;5035786;28;20486;-70
2022/08/07 04:14:10;;;;;;;;;;;20.00;47.00;;;;;;5035252;28;19932;-71
2022/08/07 04:16:37;;;;;;;;;;;19.90;46.90;;;;;;5016705;28;19929;-71
2022/08/07 04:19:04;;;;;;;;;;;19.90;47.00;;;;;;5019272;28;19937;-70
2022/08/07 04:21:31;;;;;;;;;;;19.90;47.10;;;;;;5041859;28;20597;-70
2022/08/07 04:23:57;;;;;;;;;;;19.80;47.30;;;;;;5029453;28;20277;-71
2022/08/07 04:26:24;;;;;;;;;;;19.80;47.20;;;;;;5037056;28;19929;-69
2022/08/07 04:28:50;;;;;;;;;;;19.80;47.20;;;;;;5020466;28;19925;-70
2022/08/07 04:31:19;;;;;;;;;;;19.80;47.20;;;;;;5018533;28;19929;-70
2022/08/07 04:33:46;;;;;;;;;;;19.80;47.40;;;;;;5021956;28;19932;-71
2022/08/07 04:36:14;;;;;;;;;;;19.70;47.20;;;;;;5031917;28;19925;-72
2022/08/07 04:38:40;;;;;;;;;;;19.70;47.40;;;;;;5025199;28;19928;-70
2022/08/07 04:41:07;;;;;;;;;;;19.70;47.40;;;;;;5040442;28;19929;-70
2022/08/07 04:43:36;;;;;;;;;;;19.70;47.60;;;;;;5020526;28;19961;-69
2022/08/07 04:46:05;;;;;;;;;;;19.60;47.60;;;;;;5021500;28;19929;-70
2022/08/07 04:48:39;;;;;;;;;;;19.60;47.80;;;;;;5017439;28;19960;-70
2022/08/07 04:51:08;;;;;;;;;;;19.60;47.80;;;;;;5033046;28;19929;-70
2022/08/07 04:53:38;;;;;;;;;;;19.60;48.10;;;;;;5023030;28;20556;-70
2022/08/07 04:56:07;;;;;;;;;;;19.60;48.10;;;;;;5032038;28;19988;-70
2022/08/07 04:58:37;;;;;;;;;;;19.50;48.10;;;;;;5021290;28;19936;-70
2022/08/07 05:01:13;;;;;;;;;;;19.50;48.10;;;;;;5028971;28;20325;-70
2022/08/07 05:03:49;;;;;;;;;;;19.50;48.20;;;;;;5019074;28;19932;-70
2022/08/07 05:06:18;;;;;;;;;;;19.40;48.10;;;;;;5019358;28;19932;-71
2022/08/07 05:08:46;;;;;;;;;;;19.50;48.90;;;;;;5030578;28;19943;-69
2022/08/07 05:11:15;;;;;;;;;;;19.50;48.20;;;;;;5031011;28;19936;-70
2022/08/07 05:13:45;;;;;;;;;;;19.40;48.30;;;;;;5038516;28;19936;-70
2022/08/07 05:16:14;;;;;;;;;;;19.40;48.40;;;;;;5026077;28;19926;-71
2022/08/07 05:18:46;;;;;;;;;;;19.40;48.30;;;;;;5019813;28;20120;-72
2022/08/07 05:21:13;;;;;;;;;;;19.30;48.30;;;;;;5024263;28;19921;-70
2022/08/07 05:23:41;;;;;;;;;;;19.30;48.50;;;;;;5029337;28;19943;-70
2022/08/07 05:26:11;;;;;;;;;;;19.30;48.40;;;;;;5037444;28;19925;-70
2022/08/07 05:28:38;;;;;;;;;;;19.30;48.30;;;;;;5020546;28;19990;-71
2022/08/07 05:31:05;;;;;;;;;;;19.30;48.50;;;;;;5019181;28;19929;-69
2022/08/07 05:33:33;;;;;;;;;;;19.30;48.60;;;;;;5036984;28;19937;-70
2022/08/07 05:36:03;;;;;;;;;;;19.20;48.70;;;;;;5026995;28;19927;-70
2022/08/07 05:38:29;;;;;;;;;;;19.20;48.60;;;;;;5028297;28;19933;-70
2022/08/07 05:40:56;;;;;;;;;;;19.30;48.50;;;;;;5044558;28;19933;-70
2022/08/07 05:43:23;;;;;;;;;;;19.20;48.50;;;;;;5019526;28;19929;-70
2022/08/07 05:45:50;;;;;;;;;;;19.20;48.60;;;;;;5017192;28;19933;-71
2022/08/07 05:48:18;;;;;;;;;;;19.20;48.70;;;;;;5024672;28;19929;-71
2022/08/07 05:50:46;;;;;;;;;;;19.20;48.70;;;;;;5035806;28;19936;-73
2022/08/07 05:53:14;;;;;;;;;;;19.20;48.60;;;;;;5019695;28;20005;-73
2022/08/07 05:55:40;;;;;;;;;;;19.20;48.60;;;;;;5031325;28;19995;-72
2022/08/07 05:58:07;;;;;;;;;;;19.20;48.60;;;;;;5020513;28;19936;-71
2022/08/07 06:00:35;;;;;;;;;;;19.20;48.60;;;;;;5041051;28;19925;-70
2022/08/07 06:03:03;;;;;;;;;;;19.20;48.60;;;;;;5020500;28;19929;-70
2022/08/07 06:05:30;;;;;;;;;;;19.10;48.60;;;;;;5020449;28;19972;-70
2022/08/07 06:07:59;;;;;;;;;;;19.20;48.70;;;;;;5018836;28;19928;-70
2022/08/07 06:10:27;;;;;;;;;;;19.10;48.40;;;;;;5027312;28;19933;-72
2022/08/07 06:12:54;;;;;;;;;;;19.10;48.40;;;;;;5031432;28;19935;-71
2022/08/07 06:15:20;;;;;;;;;;;19.10;48.70;;;;;;5019838;28;19926;-70
2022/08/07 06:17:47;;;;;;;;;;;19.10;48.60;;;;;;5022179;28;20043;-70
2022/08/07 06:20:14;;;;;;;;;;;19.10;48.60;;;;;;5020125;28;19933;-69
2022/08/07 06:22:41;;;;;;;;;;;19.10;48.50;;;;;;5032839;28;19940;-70
2022/08/07 06:25:08;;;;;;;;;;;19.20;48.50;;;;;;5030597;28;19933;-70
2022/08/07 06:27:36;;;;;;;;;;;19.10;48.50;;;;;;5035213;28;19936;-70
2022/08/07 06:30:03;;;;;;;;;;;19.10;48.50;;;;;;5029024;28;20420;-70
2022/08/07 06:32:30;;;;;;;;;;;19.10;48.70;;;;;;5020847;28;19932;-70
2022/08/07 06:34:59;;;;;;;;;;;19.10;48.60;;;;;;5017681;28;19926;-73
2022/08/07 06:37:25;;;;;;;;;;;19.20;48.80;;;;;;5038676;28;20312;-70
2022/08/07 06:39:52;;;;;;;;;;;19.20;48.60;;;;;;5026872;28;20512;-70
2022/08/07 06:42:21;;;;;;;;;;;19.20;48.60;;;;;;5022032;28;20405;-70
2022/08/07 06:44:50;;;;;;;;;;;19.20;48.70;;;;;;5018969;28;20431;-70
2022/08/07 06:47:16;;;;;;;;;;;19.20;48.70;;;;;;5018260;28;20698;-70
2022/08/07 06:49:43;;;;;;;;;;;19.20;48.60;;;;;;5024063;28;20380;-71
2022/08/07 06:52:11;;;;;;;;;;;19.20;48.50;;;;;;5025679;28;19929;-71
2022/08/07 06:54:38;;;;;;;;;;;19.20;48.60;;;;;;5021114;28;19933;-70
2022/08/07 06:57:05;;;;;;;;;;;19.20;48.30;;;;;;5029387;28;20739;-70
2022/08/07 06:59:40;;;;;;;;;;;19.20;48.40;;;;;;5017895;28;20642;-70
2022/08/07 07:02:09;;;;;;;;;;;19.30;48.50;;;;;;5014978;28;20304;-71
2022/08/07 07:04:37;;;;;;;;;;;19.30;48.20;;;;;;5014390;28;20222;-71
2022/08/07 07:07:06;;;;;;;;;;;19.30;48.50;;;;;;5018456;28;19932;-70
2022/08/07 07:09:32;;;;;;;;;;;19.30;49.10;;;;;;5020677;28;19996;-70
2022/08/07 07:12:18;;;;;;;;;;;19.30;48.50;;;;;;5029403;28;20635;-71
2022/08/07 07:14:49;;;;;;;;;;;19.30;48.40;;;;;;5011662;28;19929;-71
2022/08/07 07:17:20;;;;;;;;;;;19.30;48.50;;;;;;5015618;28;19929;-72
2022/08/07 07:19:48;;;;;;;;;;;19.40;48.50;;;;;;5016260;28;19940;-71
2022/08/07 07:22:16;;;;;;;;;;;19.40;48.10;;;;;;5009066;28;19933;-71
2022/08/07 07:24:43;;;;;;;;;;;19.40;48.20;;;;;;5029283;28;20008;-72
2022/08/07 07:27:10;;;;;;;;;;;19.40;48.30;;;;;;5029536;28;19940;-73
2022/08/07 07:29:38;;;;;;;;;;;19.40;48.40;;;;;;5016751;28;19935;-70
2022/08/07 07:32:07;;;;;;;;;;;19.50;48.40;;;;;;5014070;28;19929;-70
2022/08/07 07:34:38;;;;;;;;;;;19.50;48.40;;;;;;5034058;28;19933;-72
2022/08/07 07:37:05;;;;;;;;;;;19.50;48.40;;;;;;5026247;28;19933;-72
2022/08/07 07:39:33;;;;;;;;;;;19.50;48.60;;;;;;5031407;28;20665;-70
2022/08/07 07:42:01;;;;;;;;;;;19.50;48.60;;;;;;5024410;28;19945;-71
2022/08/07 07:44:28;;;;;;;;;;;19.60;48.60;;;;;;5018308;28;19949;-73
2022/08/07 07:46:55;;;;;;;;;;;19.60;48.50;;;;;;5015597;28;19933;-71
2022/08/07 07:49:23;;;;;;;;;;;19.70;48.60;;;;;;5025401;28;19933;-69
2022/08/07 07:51:52;;;;;;;;;;;19.70;48.50;;;;;;5018340;28;20004;-70
2022/08/07 07:54:19;;;;;;;;;;;19.70;48.30;;;;;;5019293;28;19925;-70
2022/08/07 07:56:46;;;;;;;;;;;19.70;48.40;;;;;;5016252;28;20297;-70
2022/08/07 07:59:13;;;;;;;;;;;19.70;48.40;;;;;;5021374;28;19932;-72
2022/08/07 08:01:43;;;;;;;;;;;19.80;48.40;;;;;;5032776;28;19936;-70
2022/08/07 08:04:09;;;;;;;;;;;19.80;48.60;;;;;;5014421;28;20405;-70
2022/08/07 08:06:38;;;;;;;;;;;19.90;48.70;;;;;;5018547;28;19929;-70
2022/08/07 08:09:07;;;;;;;;;;;19.90;48.90;;;;;;5020249;28;19939;-72
2022/08/07 08:11:34;;;;;;;;;;;19.90;48.90;;;;;;5035193;28;19929;-70
2022/08/07 08:14:00;;;;;;;;;;;20.00;48.90;;;;;;5039798;28;19929;-70
2022/08/07 08:16:29;;;;;;;;;;;20.00;49.20;;;;;;5025096;28;19925;-72
2022/08/07 08:18:56;;;;;;;;;;;20.00;49.00;;;;;;5019880;28;20320;-71
2022/08/07 08:27:08;;;;;;;;;;;20.20;49.20;;;;;;5035585;28;19931;-70
2022/08/07 08:29:36;;;;;;;;;;;20.20;49.30;;;;;;5037698;28;20021;-70
2022/08/07 08:32:04;;;;;;;;;;;20.20;49.20;;;;;;5021007;28;19929;-70
2022/08/07 08:34:31;;;;;;;;;;;20.30;49.20;;;;;;5020570;28;19963;-70
2022/08/07 08:36:58;;;;;;;;;;;20.30;49.20;;;;;;5033676;28;20274;-72
2022/08/07 08:39:27;;;;;;;;;;;20.30;49.20;;;;;;5034303;28;19947;-71
2022/08/07 08:41:59;;;;;;;;;;;20.40;49.40;;;;;;5035069;28;19932;-71
2022/08/07 08:44:29;;;;;;;;;;;20.40;49.50;;;;;;5022095;28;19937;-69
2022/08/07 08:47:00;;;;;;;;;;;20.50;49.40;;;;;;5028999;28;19935;-70
2022/08/07 08:49:44;;;;;;;;;;;20.50;49.40;;;;;;5033200;28;19936;-71
2022/08/07 08:52:12;;;;;;;;;;;20.50;49.20;;;;;;5017819;28;20339;-71
2022/08/07 08:54:42;;;;;;;;;;;20.60;49.30;;;;;;5027483;28;19929;-70
2022/08/07 08:57:12;;;;;;;;;;;20.60;49.20;;;;;;5025992;28;19925;-70
2022/08/07 08:59:45;;;;;;;;;;;20.70;49.40;;;;;;5033653;28;19932;-71
2022/08/07 09:02:17;;;;;;;;;;;20.70;49.30;;;;;;5028245;28;19929;-73
2022/08/07 09:04:46;;;;;;;;;;;20.80;49.30;;;;;;5014121;28;19932;-71
2022/08/07 09:07:15;;;;;;;;;;;20.80;49.10;;;;;;5036768;28;19926;-71
2022/08/07 09:09:48;;;;;;;;;;;20.90;49.10;;;;;;5030301;28;19932;-71
2022/08/07 09:12:23;;;;;;;;;;;20.90;48.90;;;;;;5027521;28;19937;-71
2022/08/07 09:14:59;;;;;;;;;;;21.00;48.90;;;;;;5021212;28;19925;-72
2022/08/07 09:17:31;;;;;;;;;;;21.10;48.80;;;;;;5018257;28;20520;-70
2022/08/07 09:19:59;;;;;;;;;;;21.10;48.80;;;;;;5020528;28;19929;-72
2022/08/07 09:22:34;;;;;;;;;;;21.20;48.90;;;;;;5018327;28;19930;-71
2022/08/07 09:25:06;;;;;;;;;;;21.30;48.80;;;;;;5037550;28;19940;-71
2022/08/07 09:27:34;;;;;;;;;;;21.30;48.50;;;;;;5034009;28;19929;-70
2022/08/07 09:30:03;;;;;;;;;;;21.40;48.40;;;;;;5028653;28;19936;-71
2022/08/07 09:32:34;;;;;;;;;;;21.50;47.80;;;;;;5017518;28;19930;-71
2022/08/07 09:35:06;;;;;;;;;;;21.50;47.60;;;;;;5016959;28;19929;-71
2022/08/07 09:37:36;;;;;;;;;;;21.60;48.20;;;;;;5038350;28;19935;-70
2022/08/07 09:40:08;;;;;;;;;;;21.70;47.50;;;;;;5033892;28;20016;-71
2022/08/07 09:42:40;;;;;;;;;;;21.70;47.40;;;;;;5024237;28;19933;-69
2022/08/07 09:45:10;;;;;;;;;;;21.80;47.90;;;;;;5017465;28;19936;-69
2022/08/07 09:47:44;;;;;;;;;;;21.90;47.00;;;;;;5023151;28;19968;-71
2022/08/07 09:50:13;;;;;;;;;;;21.90;46.30;;;;;;5042515;28;19929;-72
2022/08/07 09:52:42;;;;;;;;;;;22.00;47.00;;;;;;5020687;28;20437;-71
2022/08/07 09:55:14;;;;;;;;;;;22.10;46.40;;;;;;5030411;28;20415;-71
2022/08/07 09:57:59;;;;;;;;;;;22.10;46.40;;;;;;5022624;28;19933;-72
2022/08/07 10:00:29;;;;;;;;;;;22.20;46.00;;;;;;5019370;28;19925;-71
2022/08/07 10:03:10;;;;;;;;;;;22.30;45.70;;;;;;5038319;28;19965;-72
2022/08/07 10:05:51;;;;;;;;;;;22.40;45.40;;;;;;4990242;28;19932;-71
2022/08/07 10:08:37;;;;;;;;;;;22.40;45.00;;;;;;5019132;28;19937;-71
2022/08/07 10:11:11;;;;;;;;;;;22.50;44.90;;;;;;5027419;28;19933;-70
2022/08/07 10:13:46;;;;;;;;;;;22.60;44.00;;;;;;5041311;28;19925;-71
2022/08/07 10:16:23;;;;;;;;;;;22.70;44.10;;;;;;5029495;28;19932;-72
2022/08/07 10:18:57;;;;;;;;;;;22.70;44.20;;;;;;5016162;28;19936;-70
2022/08/07 10:21:32;;;;;;;;;;;22.80;44.90;;;;;;5037492;28;19925;-70
2022/08/07 10:24:04;;;;;;;;;;;22.90;44.90;;;;;;5026249;28;20388;-71
2022/08/07 10:26:36;;;;;;;;;;;23.00;43.40;;;;;;5033030;28;19925;-70
2022/08/07 10:29:20;;;;;;;;;;;23.00;43.20;;;;;;5032915;28;19936;-70
2022/08/07 10:31:57;;;;;;;;;;;23.10;44.00;;;;;;5019180;28;20625;-72
2022/08/07 10:34:29;;;;;;;;;;;23.20;42.90;;;;;;5017027;28;20024;-72
2022/08/07 10:37:00;;;;;;;;;;;23.30;42.10;;;;;;5027471;28;19928;-71
2022/08/07 10:39:34;;;;;;;;;;;23.30;41.90;;;;;;5031238;28;19928;-71
2022/08/07 10:42:06;;;;;;;;;;;23.40;42.00;;;;;;5032138;28;19925;-70
2022/08/07 10:44:39;;;;;;;;;;;23.50;42.20;;;;;;5017799;28;19929;-70
2022/08/07 10:47:11;;;;;;;;;;;23.50;41.70;;;;;;5027054;28;19943;-70
2022/08/07 10:49:40;;;;;;;;;;;23.60;42.10;;;;;;5031065;28;19980;-70
2022/08/07 10:52:12;;;;;;;;;;;23.70;41.90;;;;;;5014434;28;19929;-71
2022/08/07 10:54:46;;;;;;;;;;;23.80;41.20;;;;;;5020756;28;20271;-71
2022/08/07 10:57:18;;;;;;;;;;;23.80;40.50;;;;;;5026360;28;19926;-71
2022/08/07 10:59:50;;;;;;;;;;;23.90;41.20;;;;;;5020883;28;19929;-73
2022/08/07 11:02:22;;;;;;;;;;;24.00;41.30;;;;;;5014576;28;20548;-71
2022/08/07 11:04:56;;;;;;;;;;;24.00;40.20;;;;;;5028437;28;19973;-71
2022/08/07 11:07:27;;;;;;;;;;;24.10;40.40;;;;;;5036782;28;19925;-70
2022/08/07 11:09:55;;;;;;;;;;;24.10;40.10;;;;;;5031703;28;19924;-71
2022/08/07 11:12:28;;;;;;;;;;;24.20;39.60;;;;;;5025419;28;19925;-72
2022/08/07 11:14:56;;;;;;;;;;;24.30;40.10;;;;;;5026451;28;19933;-73
2022/08/07 11:17:25;;;;;;;;;;;24.30;39.70;;;;;;5022182;28;19925;-70
2022/08/07 11:19:55;;;;;;;;;;;24.40;39.90;;;;;;5014878;28;19925;-71
2022/08/07 11:22:25;;;;;;;;;;;24.50;39.60;;;;;;5027451;28;19922;-69
2022/08/07 11:24:58;;;;;;;;;;;24.60;40.90;;;;;;5038258;28;19929;-72
2022/08/07 11:27:29;;;;;;;;;;;24.60;39.50;;;;;;5030829;28;19925;-70
2022/08/07 11:30:00;;;;;;;;;;;24.70;38.50;;;;;;5031566;28;19925;-71
2022/08/07 11:32:30;;;;;;;;;;;24.70;38.20;;;;;;5021799;28;19929;-72
2022/08/07 11:34:58;;;;;;;;;;;24.80;38.10;;;;;;5015718;28;19929;-72
2022/08/07 11:37:33;;;;;;;;;;;24.90;38.40;;;;;;5029603;28;20396;-71
2022/08/07 11:40:07;;;;;;;;;;;24.90;37.70;;;;;;5032902;28;19921;-70
2022/08/07 11:42:40;;;;;;;;;;;25.00;38.30;;;;;;5025524;28;19936;-70
2022/08/07 11:45:15;;;;;;;;;;;25.10;38.80;;;;;;5015299;28;19941;-71
2022/08/07 11:47:50;;;;;;;;;;;25.10;37.70;;;;;;5017331;28;19933;-69
2022/08/07 11:50:23;;;;;;;;;;;25.20;37.80;;;;;;5027931;28;19925;-68
2022/08/07 11:53:01;;;;;;;;;;;25.30;39.10;;;;;;5018824;28;19953;-68
2022/08/07 11:55:34;;;;;;;;;;;25.30;39.20;;;;;;5034330;28;19929;-69
2022/08/07 11:58:08;;;;;;;;;;;25.40;38.30;;;;;;5019063;28;20340;-68
2022/08/07 12:00:38;;;;;;;;;;;25.50;37.70;;;;;;5016617;28;19929;-68
2022/08/07 12:03:28;;;;;;;;;;;25.50;38.00;;;;;;5030881;28;19968;-68
2022/08/07 12:05:58;;;;;;;;;;;25.60;37.50;;;;;;5030604;28;19929;-71
2022/08/07 12:08:26;;;;;;;;;;;25.60;38.10;;;;;;5033571;28;20028;-68
2022/08/07 12:10:56;;;;;;;;;;;25.70;38.00;;;;;;5028811;28;19924;-68
2022/08/07 12:13:27;;;;;;;;;;;25.70;38.20;;;;;;5035611;28;19928;-67
2022/08/07 12:15:57;;;;;;;;;;;25.80;36.70;;;;;;5018890;28;19932;-69
2022/08/07 12:18:26;;;;;;;;;;;25.90;37.00;;;;;;5018798;28;19932;-68
2022/08/07 12:20:58;;;;;;;;;;;25.90;36.90;;;;;;5033232;28;19925;-68
2022/08/07 12:23:38;;;;;;;;;;;26.00;36.30;;;;;;5025288;28;20373;-68
2022/08/07 12:26:09;;;;;;;;;;;26.00;37.20;;;;;;5038150;28;20123;-68
2022/08/07 12:28:42;;;;;;;;;;;26.10;35.70;;;;;;5020537;28;19926;-68
2022/08/07 12:31:11;;;;;;;;;;;26.10;35.60;;;;;;5021807;28;19944;-67
2022/08/07 12:33:38;;;;;;;;;;;26.20;35.90;;;;;;5028038;28;20693;-68
2022/08/07 12:36:06;;;;;;;;;;;26.20;35.90;;;;;;5036949;28;19929;-70
2022/08/07 12:38:33;;;;;;;;;;;26.30;35.20;;;;;;5034477;28;19929;-68
2022/08/07 12:41:00;;;;;;;;;;;26.40;35.90;;;;;;5044803;28;19925;-67
2022/08/07 12:43:29;;;;;;;;;;;26.40;35.40;;;;;;5019627;28;19929;-69
2022/08/07 12:46:02;;;;;;;;;;;26.40;35.90;;;;;;5021171;28;19928;-68
2022/08/07 12:48:32;;;;;;;;;;;26.50;36.00;;;;;;5019567;28;19940;-68
2022/08/07 12:51:01;;;;;;;;;;;26.50;34.80;;;;;;5031849;28;19991;-68
2022/08/07 12:53:30;;;;;;;;;;;26.60;35.20;;;;;;5020495;28;19929;-69
2022/08/07 12:55:59;;;;;;;;;;;26.60;34.80;;;;;;5032498;28;19932;-71
2022/08/07 12:58:27;;;;;;;;;;;26.70;34.70;;;;;;5022886;28;19929;-68
2022/08/07 13:01:00;;;;;;;;;;;26.80;34.90;;;;;;5040440;28;19932;-68
2022/08/07 13:03:50;;;;;;;;;;;26.90;35.50;;;;;;5015106;28;19932;-68
2022/08/07 13:06:24;;;;;;;;;;;26.90;34.40;;;;;;5024526;28;19929;-68
2022/08/07 13:08:55;;;;;;;;;;;27.00;34.10;;;;;;5032826;28;19922;-68
2022/08/07 13:11:34;;;;;;;;;;;27.00;35.40;;;;;;5031105;28;19925;-67
2022/08/07 13:14:06;;;;;;;;;;;27.00;35.70;;;;;;5029737;28;20390;-68
2022/08/07 13:16:37;;;;;;;;;;;27.10;34.10;;;;;;5019203;28;19936;-69
2022/08/07 13:19:11;;;;;;;;;;;27.10;33.90;;;;;;5020457;28;19929;-70
2022/08/07 13:21:41;;;;;;;;;;;27.20;33.10;;;;;;5034218;28;19944;-69
2022/08/07 13:24:09;;;;;;;;;;;27.30;35.10;;;;;;5030060;28;20400;-69
2022/08/07 13:26:39;;;;;;;;;;;27.30;34.70;;;;;;5038272;28;19929;-68
2022/08/07 13:29:12;;;;;;;;;;;27.40;32.70;;;;;;5020674;28;20676;-70
2022/08/07 13:31:45;;;;;;;;;;;27.40;33.50;;;;;;5017358;28;20399;-68
2022/08/07 13:34:21;;;;;;;;;;;27.50;33.30;;;;;;5033055;28;19925;-68
2022/08/07 13:36:50;;;;;;;;;;;27.50;34.00;;;;;;5030164;28;20046;-67
2022/08/07 13:39:27;;;;;;;;;;;27.60;35.20;;;;;;5033334;28;19935;-69
2022/08/07 13:41:54;;;;;;;;;;;27.70;33.70;;;;;;5027541;28;19967;-69
2022/08/07 13:44:21;;;;;;;;;;;27.70;32.50;;;;;;5019669;28;19941;-69
2022/08/07 13:46:53;;;;;;;;;;;27.80;32.40;;;;;;5017347;28;20389;-68
2022/08/07 13:49:22;;;;;;;;;;;27.80;33.60;;;;;;5021018;28;19941;-69
2022/08/07 13:51:48;;;;;;;;;;;27.90;33.20;;;;;;5014656;28;20401;-68
2022/08/07 13:54:15;;;;;;;;;;;28.00;33.30;;;;;;5018970;28;19929;-71
2022/08/07 13:56:43;;;;;;;;;;;28.00;32.50;;;;;;5030932;28;19933;-69
2022/08/07 13:59:11;;;;;;;;;;;28.00;32.50;;;;;;5018341;28;19928;-69
2022/08/07 14:01:43;;;;;;;;;;;28.10;32.60;;;;;;5018361;28;20016;-68
2022/08/07 14:04:10;;;;;;;;;;;28.20;32.00;;;;;;5022219;28;19933;-69
2022/08/07 14:06:39;;;;;;;;;;;28.20;32.10;;;;;;5025315;28;19968;-69
2022/08/07 14:09:07;;;;;;;;;;;28.30;32.10;;;;;;5017434;28;19936;-68
2022/08/07 14:11:36;;;;;;;;;;;28.40;32.60;;;;;;5034383;28;19936;-69
2022/08/07 14:14:04;;;;;;;;;;;28.40;33.30;;;;;;5031849;28;19930;-68
2022/08/07 14:16:33;;;;;;;;;;;28.50;32.70;;;;;;5021957;28;19925;-68
2022/08/07 14:19:01;;;;;;;;;;;28.60;33.50;;;;;;5018140;28;19925;-69
2022/08/07 14:21:29;;;;;;;;;;;28.60;33.70;;;;;;5034558;28;19928;-72
2022/08/07 14:24:00;;;;;;;;;;;28.70;33.00;;;;;;5025124;28;19925;-68
2022/08/07 14:26:30;;;;;;;;;;;28.70;32.80;;;;;;5033650;28;19947;-69
2022/08/07 14:28:57;;;;;;;;;;;28.80;32.40;;;;;;5031256;28;19932;-69
2022/08/07 14:31:25;;;;;;;;;;;28.90;32.00;;;;;;5022810;28;19933;-70
2022/08/07 14:33:51;;;;;;;;;;;29.00;31.40;;;;;;5016862;28;19925;-68